Time;durP1;ratioP1;P1;durP2;ratioP2;P2;SDS_P1;SDS_P2;PMS_P1;PMS_P2;Temp;Humidity;BMP_temperature;BMP_pressure;BME280_temperature;BME280_humidity;BME280_pressure;Samples;Min_cycle;Max_cycle;Signal;HPM_P1;HPM_P2
2020/12/30 02:17:14;;;;;;;3.73;1.70;;;1.80;99.90;;;;;;6185359;23;20350;-93
2020/12/30 02:19:40;;;;;;;4.63;1.70;;;1.80;99.90;;;;;;6165289;23;20073;-93
2020/12/30 02:22:08;;;;;;;4.63;2.00;;;1.90;99.90;;;;;;6175557;23;20006;-93
2020/12/30 02:24:35;;;;;;;4.13;1.90;;;1.90;99.90;;;;;;6191590;23;20103;-93
2020/12/30 02:27:02;;;;;;;3.60;1.70;;;1.80;99.90;;;;;;6188573;23;20012;-93
2020/12/30 02:29:29;;;;;;;4.30;1.80;;;1.90;99.90;;;;;;6186494;23;20036;-92
2020/12/30 02:31:55;;;;;;;4.77;1.90;;;1.80;99.90;;;;;;6184748;23;20001;-94
2020/12/30 02:34:21;;;;;;;4.63;1.80;;;1.90;99.90;;;;;;6191504;23;20001;-92
2020/12/30 02:36:48;;;;;;;4.77;1.70;;;1.90;99.90;;;;;;6192587;23;20015;-92
2020/12/30 02:39:14;;;;;;;4.27;1.70;;;1.90;99.90;;;;;;6192021;23;20009;-92
2020/12/30 02:41:39;;;;;;;3.60;1.53;;;1.90;99.90;;;;;;6192407;23;20009;-93
2020/12/30 02:44:07;;;;;;;3.80;1.50;;;1.90;99.90;;;;;;6192269;23;20004;-91
2020/12/30 02:46:33;;;;;;;2.63;1.20;;;1.90;99.90;;;;;;6192005;23;20009;-92
2020/12/30 02:48:59;;;;;;;5.00;1.47;;;2.00;99.90;;;;;;6191162;23;20005;-93
2020/12/30 02:51:25;;;;;;;4.90;1.23;;;2.00;99.90;;;;;;6194186;23;20012;-92
2020/12/30 02:53:51;;;;;;;2.87;1.30;;;2.00;99.90;;;;;;6190448;23;20070;-93
2020/12/30 02:56:17;;;;;;;5.03;1.53;;;2.00;99.90;;;;;;6189879;23;20028;-92
2020/12/30 02:58:44;;;;;;;4.07;1.20;;;2.00;99.90;;;;;;6193083;23;20009;-93
2020/12/30 03:01:10;;;;;;;4.30;1.30;;;2.00;99.90;;;;;;6189295;23;20028;-93
2020/12/30 03:03:36;;;;;;;2.70;1.33;;;2.10;99.90;;;;;;6188488;23;20015;-93
2020/12/30 03:06:03;;;;;;;4.33;1.30;;;2.10;99.90;;;;;;6187722;23;20016;-93
2020/12/30 03:08:28;;;;;;;2.60;1.20;;;2.10;99.90;;;;;;6187901;23;20692;-93
2020/12/30 03:10:54;;;;;;;5.53;1.20;;;2.20;99.90;;;;;;6185116;23;20001;-93
2020/12/30 03:13:20;;;;;;;4.20;1.40;;;2.10;99.90;;;;;;6188713;23;20001;-93
2020/12/30 03:15:46;;;;;;;2.87;0.83;;;2.20;99.90;;;;;;6186418;23;20048;-93
2020/12/30 03:18:11;;;;;;;3.93;1.23;;;2.20;99.90;;;;;;6188567;23;20033;-93
2020/12/30 03:20:37;;;;;;;4.27;1.20;;;2.20;99.90;;;;;;6190887;23;20009;-93
2020/12/30 03:23:03;;;;;;;6.03;1.80;;;2.20;99.90;;;;;;6188731;23;20360;-92
2020/12/30 03:25:28;;;;;;;3.07;1.13;;;2.20;99.90;;;;;;6188248;23;20431;-93
2020/12/30 03:27:56;;;;;;;3.00;1.00;;;2.20;99.90;;;;;;6189578;23;20020;-93
2020/12/30 03:30:22;;;;;;;3.87;0.90;;;2.20;99.90;;;;;;6187900;23;20005;-93
2020/12/30 03:32:48;;;;;;;3.20;1.00;;;2.30;99.90;;;;;;6188031;23;20005;-93
2020/12/30 03:35:13;;;;;;;3.97;1.20;;;2.30;99.90;;;;;;6186335;23;20043;-93
2020/12/30 03:37:39;;;;;;;3.50;1.23;;;2.30;99.90;;;;;;6188182;23;20091;-93
2020/12/30 03:40:05;;;;;;;4.27;0.97;;;2.30;99.90;;;;;;6185900;23;20137;-93
2020/12/30 03:42:30;;;;;;;4.80;1.07;;;2.20;99.90;;;;;;6185967;23;20005;-93
2020/12/30 03:44:59;;;;;;;4.17;0.80;;;2.20;99.90;;;;;;6187315;23;20009;-94
2020/12/30 03:47:28;;;;;;;3.07;0.93;;;2.30;99.90;;;;;;6187097;23;20001;-93
2020/12/30 03:49:54;;;;;;;3.93;0.83;;;2.20;99.90;;;;;;6187403;23;20009;-92
2020/12/30 03:52:19;;;;;;;2.33;0.87;;;2.20;99.90;;;;;;6188710;23;20032;-93
2020/12/30 03:54:45;;;;;;;3.07;1.10;;;2.20;99.90;;;;;;6188715;23;20009;-93
2020/12/30 03:57:10;;;;;;;3.83;1.00;;;2.20;99.90;;;;;;6187628;23;20311;-93
2020/12/30 03:59:36;;;;;;;3.60;1.13;;;2.20;99.90;;;;;;6187735;23;20012;-92
2020/12/30 04:02:01;;;;;;;3.87;1.00;;;2.10;99.90;;;;;;6188584;23;20001;-93
2020/12/30 04:04:27;;;;;;;3.10;0.93;;;2.10;99.90;;;;;;6187622;23;20040;-93
2020/12/30 04:06:53;;;;;;;4.07;1.03;;;2.10;99.90;;;;;;6187970;23;20008;-93
2020/12/30 04:09:18;;;;;;;4.77;1.27;;;2.00;99.90;;;;;;6187436;23;20031;-92
2020/12/30 04:11:44;;;;;;;2.77;1.17;;;2.10;99.90;;;;;;6188423;23;20001;-92
2020/12/30 04:14:09;;;;;;;5.50;1.10;;;2.10;99.90;;;;;;6188189;23;20106;-92
2020/12/30 04:16:36;;;;;;;3.93;1.00;;;2.10;99.90;;;;;;6184540;23;20009;-93
2020/12/30 04:19:02;;;;;;;5.13;1.00;;;2.00;99.90;;;;;;6188089;23;20009;-92
2020/12/30 04:21:27;;;;;;;5.33;0.90;;;2.10;99.90;;;;;;6188018;23;20416;-93
2020/12/30 04:23:53;;;;;;;3.43;0.97;;;2.10;99.90;;;;;;6188075;23;20396;-93
2020/12/30 04:26:20;;;;;;;3.53;0.80;;;2.10;99.90;;;;;;6188222;23;20108;-93
2020/12/30 04:28:50;;;;;;;1.57;0.50;;;2.10;99.90;;;;;;6188433;23;20001;-93
2020/12/30 04:31:21;;;;;;;2.73;0.70;;;2.10;99.90;;;;;;6187968;23;20032;-94
2020/12/30 04:33:46;;;;;;;4.80;1.00;;;2.20;99.90;;;;;;6188325;23;20055;-93
2020/12/30 04:36:13;;;;;;;6.07;1.00;;;2.20;99.90;;;;;;6190174;23;20053;-93
2020/12/30 04:38:39;;;;;;;3.40;0.80;;;2.20;99.90;;;;;;6187858;23;20001;-93
2020/12/30 04:41:13;;;;;;;4.10;1.00;;;2.20;99.90;;;;;;6190321;23;20049;-92
2020/12/30 04:43:44;;;;;;;5.13;1.20;;;2.20;99.90;;;;;;6199134;23;20005;-92
2020/12/30 04:46:12;;;;;;;3.87;0.73;;;2.20;99.90;;;;;;6190927;23;20001;-93
2020/12/30 04:48:40;;;;;;;4.00;0.67;;;2.10;99.90;;;;;;6188914;23;20009;-92
2020/12/30 04:51:06;;;;;;;3.47;0.70;;;2.20;99.90;;;;;;6190136;23;20009;-93
2020/12/30 04:53:34;;;;;;;3.17;0.90;;;2.20;99.90;;;;;;6189558;23;20001;-92
2020/12/30 04:56:01;;;;;;;3.20;0.70;;;2.30;99.90;;;;;;6189724;23;20028;-93
2020/12/30 04:58:31;;;;;;;3.07;0.80;;;2.30;99.90;;;;;;6188295;23;20001;-93
2020/12/30 05:01:00;;;;;;;3.63;1.03;;;2.30;99.90;;;;;;6188960;23;20023;-93
2020/12/30 05:03:31;;;;;;;4.20;0.90;;;2.30;99.90;;;;;;6190758;23;20428;-93
2020/12/30 05:06:04;;;;;;;6.23;1.10;;;2.30;99.90;;;;;;6191225;23;20036;-92
2020/12/30 05:08:33;;;;;;;4.83;0.90;;;2.30;99.90;;;;;;6191192;23;20009;-93
2020/12/30 05:10:59;;;;;;;4.50;0.80;;;2.30;99.90;;;;;;6190921;23;20005;-94
2020/12/30 05:13:26;;;;;;;3.57;0.80;;;2.20;99.90;;;;;;6191477;23;20384;-94
2020/12/30 05:15:52;;;;;;;4.30;1.10;;;2.20;99.90;;;;;;6184061;23;20040;-93
2020/12/30 05:18:19;;;;;;;3.07;1.00;;;2.10;99.90;;;;;;6188971;23;20004;-93
2020/12/30 05:20:48;;;;;;;3.73;0.93;;;2.10;99.90;;;;;;6187926;23;20005;-93
2020/12/30 05:23:13;;;;;;;3.20;0.80;;;2.00;99.90;;;;;;6185765;23;20159;-93
2020/12/30 05:25:44;;;;;;;3.53;1.00;;;2.10;99.90;;;;;;6184387;23;20009;-92
2020/12/30 05:28:11;;;;;;;4.40;1.00;;;2.00;99.90;;;;;;6183985;23;20037;-93
2020/12/30 05:30:38;;;;;;;4.53;1.07;;;2.00;99.90;;;;;;6185317;23;20009;-93
2020/12/30 05:33:04;;;;;;;4.77;1.10;;;2.00;99.90;;;;;;6185373;23;20013;-93
2020/12/30 05:35:32;;;;;;;4.53;1.10;;;2.00;99.90;;;;;;6185689;23;20007;-92
2020/12/30 05:37:58;;;;;;;3.30;0.90;;;2.00;99.90;;;;;;6186104;23;19997;-93
2020/12/30 05:40:25;;;;;;;5.67;1.00;;;2.00;99.90;;;;;;6183359;23;20091;-93
2020/12/30 05:42:53;;;;;;;7.23;1.00;;;1.90;99.90;;;;;;6188563;23;20008;-93
2020/12/30 05:45:21;;;;;;;4.60;1.00;;;1.90;99.90;;;;;;6186495;23;20056;-92
2020/12/30 05:47:48;;;;;;;2.33;0.83;;;1.90;99.90;;;;;;6184700;23;20005;-93
2020/12/30 05:50:24;;;;;;;2.40;0.70;;;1.90;99.90;;;;;;6196648;23;20013;-92
2020/12/30 05:52:52;;;;;;;3.90;1.10;;;1.90;99.90;;;;;;6199417;23;20432;-93
2020/12/30 05:55:27;;;;;;;3.93;0.80;;;1.90;99.90;;;;;;6184904;23;20293;-93
2020/12/30 05:57:53;;;;;;;4.07;0.80;;;1.90;99.90;;;;;;6183620;23;20106;-93
2020/12/30 06:00:19;;;;;;;2.43;0.80;;;1.90;99.90;;;;;;6182392;23;20436;-93
2020/12/30 06:02:47;;;;;;;3.50;0.90;;;1.90;99.90;;;;;;6184165;23;20031;-93
2020/12/30 06:05:18;;;;;;;4.97;1.07;;;1.90;99.90;;;;;;6186007;23;20005;-93
2020/12/30 06:07:50;;;;;;;4.18;1.10;;;1.90;99.90;;;;;;6185290;23;20034;-93
2020/12/30 06:10:23;;;;;;;4.40;0.80;;;1.90;99.90;;;;;;6185564;23;20005;-94
2020/12/30 06:12:50;;;;;;;8.60;0.90;;;1.80;99.90;;;;;;6185677;23;20008;-93
2020/12/30 06:15:21;;;;;;;5.07;0.70;;;1.70;99.90;;;;;;6180704;23;20014;-93
2020/12/30 06:17:57;;;;;;;3.87;0.90;;;1.70;99.90;;;;;;6186170;23;20029;-93
2020/12/30 06:20:33;;;;;;;4.23;1.30;;;1.70;99.90;;;;;;6186245;23;20009;-92
2020/12/30 06:23:07;;;;;;;3.47;1.10;;;1.70;99.90;;;;;;6186552;23;20032;-93
2020/12/30 06:25:44;;;;;;;4.93;1.00;;;1.70;99.90;;;;;;6188625;23;20340;-92
2020/12/30 06:28:14;;;;;;;3.37;1.17;;;1.70;99.90;;;;;;6188124;23;20032;-93
2020/12/30 06:30:45;;;;;;;4.00;1.03;;;1.70;99.90;;;;;;6187965;23;20100;-93
2020/12/30 06:33:11;;;;;;;4.27;1.20;;;1.60;99.90;;;;;;6201821;23;20048;-93
2020/12/30 06:35:39;;;;;;;4.43;1.10;;;1.60;99.90;;;;;;6209102;23;20107;-93
2020/12/30 06:38:18;;;;;;;9.53;1.30;;;1.50;99.90;;;;;;6184893;23;20474;-93
2020/12/30 06:40:56;;;;;;;3.70;1.03;;;1.60;99.90;;;;;;6188232;23;20005;-93
2020/12/30 06:43:43;;;;;;;3.43;1.33;;;1.60;99.90;;;;;;6184648;23;20618;-93
2020/12/30 06:46:13;;;;;;;4.17;1.43;;;1.60;99.90;;;;;;6183889;23;20069;-93
2020/12/30 06:48:57;;;;;;;6.17;1.50;;;1.50;99.90;;;;;;6183675;23;20444;-92
2020/12/30 06:51:23;;;;;;;4.63;1.50;;;1.50;99.90;;;;;;6183891;23;20075;-94
2020/12/30 06:53:54;;;;;;;4.00;1.50;;;1.50;99.90;;;;;;6183505;23;20005;-93
2020/12/30 06:56:39;;;;;;;5.20;1.23;;;1.50;99.90;;;;;;6184702;23;20440;-93
2020/12/30 06:59:06;;;;;;;5.93;1.50;;;1.50;99.90;;;;;;6184460;23;20087;-93
2020/12/30 07:01:55;;;;;;;3.80;1.70;;;1.50;99.90;;;;;;6184871;23;20012;-93
2020/12/30 07:04:21;;;;;;;4.00;1.50;;;1.50;99.90;;;;;;6184962;23;20044;-93
2020/12/30 07:06:47;;;;;;;4.10;1.30;;;1.50;99.90;;;;;;6184706;23;20005;-93
2020/12/30 07:09:14;;;;;;;5.57;1.50;;;1.50;99.90;;;;;;6184748;23;20043;-92
2020/12/30 07:11:45;;;;;;;3.67;1.67;;;1.40;99.90;;;;;;6184568;23;20001;-93
2020/12/30 07:14:13;;;;;;;3.20;1.33;;;1.40;99.90;;;;;;6185507;23;20076;-93
2020/12/30 07:16:40;;;;;;;2.90;1.47;;;1.50;99.90;;;;;;6184403;23;20020;-92
2020/12/30 07:19:14;;;;;;;4.40;1.40;;;1.40;99.90;;;;;;6184271;23;20486;-93
2020/12/30 07:22:02;;;;;;;4.90;1.57;;;1.50;99.90;;;;;;6184789;23;20008;-92
2020/12/30 07:24:39;;;;;;;3.90;1.70;;;1.50;99.90;;;;;;6186246;23;20084;-94
2020/12/30 07:27:11;;;;;;;4.33;1.20;;;1.50;99.90;;;;;;6186337;23;20032;-93
2020/12/30 07:29:38;;;;;;;2.45;1.08;;;1.50;99.90;;;;;;6185586;23;20092;-93
2020/12/30 07:32:06;;;;;;;5.83;1.70;;;1.50;99.90;;;;;;6186208;23;20012;-94
2020/12/30 07:34:34;;;;;;;2.73;1.10;;;1.50;99.90;;;;;;6186161;23;20005;-94
2020/12/30 07:37:02;;;;;;;4.60;1.43;;;1.50;99.90;;;;;;6182695;23;20063;-93
2020/12/30 07:39:42;;;;;;;3.47;1.40;;;1.50;99.90;;;;;;6186026;23;20055;-93
2020/12/30 07:42:12;;;;;;;4.27;1.30;;;1.50;99.90;;;;;;6185313;23;20001;-93
2020/12/30 07:44:49;;;;;;;5.30;1.50;;;1.50;99.90;;;;;;6185962;23;20001;-93
2020/12/30 07:47:17;;;;;;;3.33;1.40;;;1.50;99.90;;;;;;6185301;23;20001;-94
2020/12/30 07:49:43;;;;;;;3.57;1.50;;;1.60;99.90;;;;;;6185552;23;20001;-93
2020/12/30 07:52:09;;;;;;;3.10;1.23;;;1.60;99.90;;;;;;6191528;23;20053;-93
2020/12/30 07:54:35;;;;;;;2.80;1.33;;;1.60;99.90;;;;;;6189085;23;20051;-94
2020/12/30 07:57:00;;;;;;;5.37;1.30;;;1.60;99.90;;;;;;6186765;23;20005;-94
2020/12/30 07:59:26;;;;;;;3.03;1.10;;;1.70;99.90;;;;;;6187670;23;20003;-93
2020/12/30 08:02:11;;;;;;;3.73;1.30;;;1.70;99.90;;;;;;6189797;23;20036;-93
2020/12/30 08:04:39;;;;;;;5.10;1.77;;;1.80;99.90;;;;;;6192677;23;20005;-93
2020/12/30 08:07:09;;;;;;;5.97;1.40;;;1.90;99.90;;;;;;6191763;23;20039;-94
2020/12/30 08:09:46;;;;;;;5.33;1.23;;;1.90;99.90;;;;;;6196776;23;20033;-93
2020/12/30 08:12:15;;;;;;;3.23;1.00;;;1.90;99.90;;;;;;6200126;23;20017;-92
2020/12/30 08:14:57;;;;;;;2.53;1.17;;;1.90;99.90;;;;;;6177032;23;20099;-92
2020/12/30 08:17:25;;;;;;;3.00;1.20;;;2.00;99.90;;;;;;6183931;23;20122;-92
2020/12/30 08:27:38;;;;;;;4.83;1.60;;;1.90;99.90;;;;;;6186255;23;20025;-93
2020/12/30 08:30:10;;;;;;;4.47;1.80;;;1.80;99.90;;;;;;6160933;23;20005;-91
2020/12/30 08:32:48;;;;;;;4.97;1.77;;;1.80;99.90;;;;;;6174449;23;20093;-93
2020/12/30 08:35:18;;;;;;;7.70;2.17;;;1.70;99.90;;;;;;6202059;23;20001;-96
2020/12/30 08:38:01;;;;;;;4.43;2.10;;;1.70;99.90;;;;;;6199266;23;20001;-95
2020/12/30 08:40:30;;;;;;;;;;;1.70;99.90;;;;;;6207310;23;20027;-93
2020/12/30 08:45:49;;;;;;;5.30;1.33;;;1.90;99.90;;;;;;6207945;23;20020;-93
2020/12/30 08:48:21;;;;;;;5.70;1.40;;;2.00;99.90;;;;;;6156572;23;20112;-88
2020/12/30 08:56:15;;;;;;;2.87;1.03;;;2.20;99.90;;;;;;6193722;23;20021;-89
2020/12/30 08:59:24;;;;;;;3.97;1.30;;;2.20;99.90;;;;;;6159602;23;20035;-92
2020/12/30 09:01:50;;;;;;;4.00;1.50;;;2.20;99.90;;;;;;6157652;23;20056;-92
2020/12/30 09:04:51;;;;;;;3.07;1.30;;;2.40;99.90;;;;;;6186144;23;20001;-92
2020/12/30 09:07:37;;;;;;;3.63;1.23;;;2.20;99.90;;;;;;6159062;23;20012;-96
2020/12/30 09:10:13;;;;;;;7.23;1.70;;;2.30;99.90;;;;;;6188374;23;20096;-90
2020/12/30 09:16:04;;;;;;;5.53;2.30;;;2.30;99.90;;;;;;6169300;23;20057;-93
2020/12/30 09:18:32;;;;;;;4.00;1.83;;;2.30;99.90;;;;;;6182664;23;20021;-90
2020/12/30 09:21:40;;;;;;;3.03;1.30;;;2.30;99.90;;;;;;6185004;23;20005;-90
2020/12/30 09:24:18;;;;;;;3.90;1.50;;;2.30;99.90;;;;;;6155570;23;20017;-92
2020/12/30 09:27:20;;;;;;;2.90;1.40;;;2.30;99.90;;;;;;6161540;23;20016;-93
2020/12/30 09:30:19;;;;;;;4.50;1.27;;;2.40;99.90;;;;;;6161490;23;19989;-96
2020/12/30 09:33:12;;;;;;;3.23;1.10;;;2.40;99.90;;;;;;6163655;23;20084;-94
2020/12/30 09:35:41;;;;;;;2.20;0.90;;;2.40;99.90;;;;;;6165387;23;20005;-93
2020/12/30 09:38:54;;;;;;;3.83;1.03;;;2.50;99.90;;;;;;6164338;23;20015;-93
2020/12/30 09:44:14;;;;;;;3.37;0.90;;;2.60;99.90;;;;;;6188613;23;20017;-93
2020/12/30 09:47:22;;;;;;;3.00;0.90;;;2.60;99.90;;;;;;6188445;23;20016;-93
2020/12/30 09:50:11;;;;;;;4.47;0.90;;;2.70;99.90;;;;;;6168393;23;20051;-93
2020/12/30 09:53:11;;;;;;;2.60;0.90;;;2.70;99.90;;;;;;6175672;23;20006;-93
2020/12/30 09:56:04;;;;;;;3.80;1.00;;;2.70;99.90;;;;;;6187264;23;20001;-93
2020/12/30 09:58:59;;;;;;;;;;;2.70;99.90;;;;;;6188317;23;20001;-93
2020/12/30 10:01:37;;;;;;;6.10;0.90;;;2.70;99.90;;;;;;6190423;23;19900;-93
2020/12/30 10:04:29;;;;;;;2.83;0.93;;;2.80;99.90;;;;;;6185684;23;20430;-93
2020/12/30 10:07:38;;;;;;;2.60;0.90;;;2.70;99.90;;;;;;6119222;23;20010;-92
2020/12/30 10:10:47;;;;;;;;;;;;;;;;;;;;;
2020/12/30 10:13:47;;;;;;;4.77;1.43;;;2.80;99.90;;;;;;6172474;23;20060;-93
2020/12/30 10:16:59;;;;;;;4.47;1.27;;;2.80;99.90;;;;;;6188797;23;20001;-93
2020/12/30 10:19:43;;;;;;;3.53;1.40;;;2.90;99.90;;;;;;6187073;23;20012;-92
2020/12/30 10:22:20;;;;;;;6.07;1.30;;;3.00;99.90;;;;;;6188513;23;20380;-93
2020/12/30 10:24:58;;;;;;;6.10;1.50;;;2.90;99.90;;;;;;6187140;23;20021;-92
2020/12/30 10:28:02;;;;;;;3.17;1.20;;;2.90;99.90;;;;;;6192757;23;20005;-93
2020/12/30 10:30:50;;;;;;;4.47;1.30;;;3.00;99.90;;;;;;6187084;23;20101;-92
2020/12/30 10:33:52;;;;;;;3.90;1.20;;;3.10;99.90;;;;;;6199260;23;20001;-92
2020/12/30 10:36:40;;;;;;;;;;;;;;;;;;;;;
2020/12/30 10:39:48;;;;;;;3.77;0.90;;;3.30;99.90;;;;;;6199471;23;20016;-93
2020/12/30 10:42:54;;;;;;;4.07;1.20;;;3.40;99.90;;;;;;6197569;23;19997;-93
2020/12/30 10:45:43;;;;;;;;;;;;;;;;;;;;;
2020/12/30 10:48:58;;;;;;;3.87;1.00;;;3.60;99.90;;;;;;6198293;23;20013;-92
2020/12/30 11:23:09;;;;;;;4.57;0.80;;;4.10;99.90;;;;;;6203480;23;20028;-93
2020/12/30 11:25:58;;;;;;;4.10;0.80;;;4.10;99.90;;;;;;6172429;22;20036;-93
2020/12/30 11:28:28;;;;;;;4.87;1.00;;;4.10;99.90;;;;;;6197848;23;20021;-92
2020/12/30 11:30:55;;;;;;;2.57;0.90;;;4.20;99.90;;;;;;6194151;23;20151;-95
2020/12/30 11:33:44;;;;;;;4.30;0.80;;;4.30;99.90;;;;;;6189216;23;20001;-91
2020/12/30 11:36:37;;;;;;;3.23;0.90;;;4.30;99.90;;;;;;6205385;23;19993;-95
2020/12/30 15:54:15;;;;;;;6.43;0.67;;;3.20;99.90;;;;;;6180382;23;20032;-94
2020/12/30 15:56:47;;;;;;;3.00;0.80;;;3.00;99.90;;;;;;6154024;23;20002;-95
2020/12/30 15:59:12;;;;;;;3.88;1.00;;;3.00;99.90;;;;;;6152660;23;20080;-93
2020/12/30 16:01:38;;;;;;;3.97;1.00;;;2.90;99.90;;;;;;6148926;23;20014;-95
2020/12/30 16:04:04;;;;;;;3.63;1.10;;;2.90;99.90;;;;;;6147908;23;20010;-93
2020/12/30 16:06:31;;;;;;;4.67;1.23;;;2.80;99.90;;;;;;6148661;23;20068;-93
2020/12/30 16:08:59;;;;;;;3.60;1.37;;;2.80;99.90;;;;;;6141870;23;20014;-93
2020/12/30 16:11:24;;;;;;;4.67;1.63;;;2.80;99.90;;;;;;6141526;23;20029;-94
2020/12/30 16:13:50;;;;;;;4.83;1.70;;;2.80;99.90;;;;;;6148534;23;20060;-94
2020/12/30 16:16:16;;;;;;;5.73;1.73;;;2.80;99.90;;;;;;6150201;23;20010;-92
2020/12/30 16:18:42;;;;;;;7.23;1.93;;;2.80;99.90;;;;;;6135256;23;20074;-93
2020/12/30 16:21:07;;;;;;;4.53;1.93;;;2.80;99.90;;;;;;6144084;23;20001;-93
2020/12/30 16:23:34;;;;;;;4.80;2.40;;;2.80;99.90;;;;;;6147026;23;20010;-95
2020/12/30 16:26:00;;;;;;;4.53;1.90;;;2.80;99.90;;;;;;6122786;23;20040;-94
2020/12/30 16:28:26;;;;;;;4.47;1.93;;;2.80;99.90;;;;;;6149980;23;19994;-94
2020/12/30 17:21:18;;;;;;;5.90;3.13;;;2.70;99.90;;;;;;6119897;23;20010;-87
2020/12/30 17:30:28;;;;;;;6.43;3.20;;;2.70;99.90;;;;;;6176383;23;20024;-92
2020/12/30 17:32:53;;;;;;;6.53;3.63;;;2.70;99.90;;;;;;6185924;23;20009;-93
2020/12/30 17:35:19;;;;;;;5.90;3.27;;;2.70;99.90;;;;;;6199240;23;20032;-94
